createdAt,value
2022-08-26T00:00:51.849Z,8.63
2022-08-26T00:03:21.415Z,7.73
2022-08-26T00:05:51.015Z,8.47
2022-08-26T00:08:21.490Z,8.90
2022-08-26T00:10:51.417Z,8.60
2022-08-26T00:13:20.086Z,8.93
2022-08-26T00:15:50.547Z,8.77
2022-08-26T00:18:22.596Z,8.47
2022-08-26T00:20:51.709Z,8.73
2022-08-26T00:23:20.017Z,9.70
2022-08-26T00:25:54.783Z,8.40
2022-08-26T00:28:26.773Z,9.57
2022-08-26T00:30:55.436Z,9.03
2022-08-26T00:33:24.293Z,8.70
2022-08-26T00:35:52.515Z,8.43
2022-08-26T00:38:22.273Z,8.50
2022-08-26T00:40:55.579Z,8.63
2022-08-26T00:43:28.670Z,8.70
2022-08-26T00:46:00.772Z,8.83
2022-08-26T00:48:33.684Z,7.57
2022-08-26T00:54:10.754Z,7.53
2022-08-26T00:56:47.791Z,8.50
2022-08-26T00:59:18.491Z,8.37
2022-08-26T01:01:48.997Z,9.33
2022-08-26T01:04:20.896Z,9.30
2022-08-26T01:06:52.301Z,7.90
2022-08-26T01:09:22.081Z,7.63
2022-08-26T01:11:54.582Z,7.90
2022-08-26T01:14:24.041Z,7.60
2022-08-26T01:16:52.537Z,8.30
2022-08-26T01:19:26.769Z,7.40
2022-08-26T01:21:59.445Z,8.43
2022-08-26T01:24:31.637Z,8.87
2022-08-26T01:27:03.500Z,8.03
2022-08-26T01:29:36.222Z,7.70
2022-08-26T01:32:09.925Z,8.40
2022-08-26T01:34:40.993Z,8.30
2022-08-26T01:37:14.185Z,7.40
2022-08-26T01:39:49.213Z,8.50
2022-08-26T01:42:19.684Z,8.03
2022-08-26T01:44:51.850Z,7.53
2022-08-26T01:47:26.623Z,7.50
2022-08-26T01:50:00.136Z,8.30
2022-08-26T01:52:31.428Z,8.17
2022-08-26T01:55:01.921Z,7.47
2022-08-26T01:57:30.805Z,8.03
2022-08-26T02:00:02.292Z,7.47
2022-08-26T02:02:30.978Z,7.77
2022-08-26T02:05:03.011Z,8.23
2022-08-26T02:07:33.218Z,8.17
2022-08-26T02:10:03.136Z,8.23
2022-08-26T02:12:32.951Z,7.27
2022-08-26T02:15:05.583Z,8.53
2022-08-26T02:17:38.568Z,7.90
2022-08-26T02:20:14.937Z,8.60
2022-08-26T02:22:47.412Z,8.07
2022-08-26T02:25:24.096Z,7.67
2022-08-26T02:27:53.112Z,8.30
2022-08-26T02:30:26.397Z,7.90
2022-08-26T02:32:56.641Z,8.20
2022-08-26T02:35:27.997Z,8.07
2022-08-26T02:37:56.423Z,8.47
2022-08-26T02:40:30.807Z,8.87
2022-08-26T02:42:59.834Z,7.63
2022-08-26T02:45:29.144Z,8.70
2022-08-26T02:47:59.672Z,8.67
2022-08-26T02:50:29.316Z,7.87
2022-08-26T02:52:57.687Z,8.50
2022-08-26T02:55:27.583Z,8.33
2022-08-26T02:57:55.973Z,8.67
2022-08-26T03:00:24.418Z,8.07
2022-08-26T03:02:56.698Z,8.70
2022-08-26T03:05:27.317Z,8.77
2022-08-26T03:07:55.724Z,8.70
2022-08-26T03:10:24.503Z,8.43
2022-08-26T03:12:55.927Z,9.27
2022-08-26T03:15:24.505Z,7.90
2022-08-26T03:17:52.759Z,8.67
2022-08-26T03:20:21.517Z,9.50
2022-08-26T03:22:51.498Z,8.63
2022-08-26T03:25:20.326Z,8.10
2022-08-26T03:27:48.818Z,8.87
2022-08-26T03:30:37.148Z,8.80
2022-08-26T03:33:07.247Z,7.90
2022-08-26T03:35:36.413Z,7.90
2022-08-26T03:38:07.243Z,8.47
2022-08-26T03:40:36.660Z,8.00
2022-08-26T03:43:07.147Z,8.27
2022-08-26T03:45:40.951Z,8.40
2022-08-26T03:48:11.412Z,7.50
2022-08-26T03:50:40.495Z,8.20
2022-08-26T03:53:13.114Z,9.20
2022-08-26T03:55:42.422Z,8.10
2022-08-26T03:58:12.393Z,8.50
2022-08-26T04:00:42.560Z,8.07
2022-08-26T04:03:15.806Z,7.60
2022-08-26T04:05:46.757Z,7.87
2022-08-26T04:08:18.547Z,7.50
2022-08-26T04:10:46.803Z,8.50
2022-08-26T04:13:15.896Z,7.27
2022-08-26T04:15:45.812Z,9.00
2022-08-26T04:18:14.726Z,7.17
2022-08-26T04:20:46.529Z,7.83
2022-08-26T04:23:15.766Z,8.20
2022-08-26T04:25:45.939Z,7.30
2022-08-26T04:28:15.120Z,7.93
2022-08-26T04:30:43.400Z,7.33
2022-08-26T04:33:13.918Z,7.93
2022-08-26T04:35:44.125Z,8.83
2022-08-26T04:38:12.524Z,8.10
2022-08-26T04:40:46.614Z,7.97
2022-08-26T04:43:15.499Z,8.40
2022-08-26T04:45:44.827Z,8.93
2022-08-26T04:48:16.825Z,8.33
2022-08-26T04:50:45.357Z,7.57
2022-08-26T04:53:17.862Z,8.20
2022-08-26T04:55:46.091Z,8.83
2022-08-26T04:58:18.508Z,8.80
2022-08-26T05:00:47.334Z,7.40
2022-08-26T05:03:17.460Z,8.80
2022-08-26T05:05:47.964Z,8.80
2022-08-26T05:08:17.398Z,8.63
2022-08-26T05:10:48.865Z,7.93
2022-08-26T05:13:20.590Z,8.00
2022-08-26T05:15:49.892Z,8.33
2022-08-26T05:18:22.797Z,8.00
2022-08-26T05:20:55.033Z,8.00
2022-08-26T05:23:24.685Z,8.10
2022-08-26T05:26:17.528Z,8.57
2022-08-26T05:28:51.453Z,7.90
2022-08-26T05:31:25.654Z,8.00
2022-08-26T05:33:56.856Z,8.50
2022-08-26T05:36:27.337Z,8.13
2022-08-26T05:38:56.811Z,9.87
2022-08-26T05:41:34.283Z,8.57
2022-08-26T05:44:06.666Z,7.90
2022-08-26T05:46:35.643Z,8.23
2022-08-26T05:49:12.513Z,8.90
2022-08-26T05:51:41.946Z,8.73
2022-08-26T05:54:10.672Z,8.73
2022-08-26T05:56:39.195Z,12.97
2022-08-26T05:59:14.270Z,105.73
2022-08-26T06:01:55.460Z,14.77
2022-08-26T06:04:27.565Z,10.00
2022-08-26T06:06:57.908Z,9.50
2022-08-26T06:09:27.407Z,10.57
2022-08-26T06:11:56.105Z,9.97
2022-08-26T06:14:25.981Z,8.97
2022-08-26T06:16:56.246Z,9.20
2022-08-26T06:19:33.000Z,8.30
2022-08-26T06:22:24.229Z,9.10
2022-08-26T06:25:16.642Z,8.50
2022-08-26T06:27:47.105Z,8.83
2022-08-26T06:30:16.656Z,8.90
2022-08-26T06:32:46.591Z,9.10
2022-08-26T06:35:14.977Z,8.93
2022-08-26T06:37:43.706Z,9.33
2022-08-26T06:40:12.838Z,9.97
2022-08-26T06:42:41.261Z,9.47
2022-08-26T06:45:10.253Z,9.60
2022-08-26T06:47:39.756Z,10.20
2022-08-26T06:50:10.546Z,9.47
2022-08-26T06:52:38.773Z,14.20
2022-08-26T06:55:18.369Z,10.33
2022-08-26T06:57:46.476Z,9.40
2022-08-26T07:00:15.815Z,9.30
2022-08-26T07:02:48.515Z,8.70
2022-08-26T07:05:18.814Z,9.63
2022-08-26T07:07:48.476Z,9.30
2022-08-26T07:10:16.932Z,9.50
2022-08-26T07:12:47.127Z,9.37
2022-08-26T07:15:16.123Z,9.50
2022-08-26T07:17:44.818Z,9.63
2022-08-26T07:20:13.506Z,10.10
2022-08-26T07:22:43.890Z,10.25
2022-08-26T07:25:12.007Z,10.05
2022-08-26T07:27:42.025Z,9.63
2022-08-26T07:30:11.938Z,8.50
2022-08-26T07:32:43.387Z,9.82
2022-08-26T07:35:11.810Z,10.00
2022-08-26T07:37:40.644Z,8.63
2022-08-26T07:40:12.476Z,9.77
2022-08-26T07:42:41.121Z,10.13
2022-08-26T07:45:10.494Z,10.52
2022-08-26T07:47:40.049Z,10.10
2022-08-26T07:50:09.469Z,10.18
2022-08-26T07:52:38.819Z,8.63
2022-08-26T07:55:12.086Z,9.07
2022-08-26T07:57:40.395Z,9.38
2022-08-26T08:00:12.465Z,9.63
2022-08-26T08:02:41.482Z,10.27
2022-08-26T08:05:09.895Z,9.60
2022-08-26T08:07:45.093Z,10.50
2022-08-26T08:10:19.349Z,9.13
2022-08-26T08:12:50.171Z,9.97
2022-08-26T08:15:20.197Z,9.80
2022-08-26T08:17:51.478Z,9.30
2022-08-26T08:20:26.126Z,9.03
2022-08-26T08:22:55.250Z,9.47
2022-08-26T08:25:25.707Z,8.73
2022-08-26T08:27:53.916Z,10.10
2022-08-26T08:30:24.526Z,8.73
2022-08-26T08:32:53.787Z,9.57
2022-08-26T08:35:23.842Z,9.27
2022-08-26T08:37:54.788Z,9.90
2022-08-26T08:40:27.142Z,9.40
2022-08-26T08:43:01.581Z,8.70
2022-08-26T08:45:37.090Z,9.10
2022-08-26T08:48:08.102Z,8.48
2022-08-26T08:50:46.022Z,9.32
2022-08-26T08:53:17.610Z,8.40
2022-08-26T08:56:04.189Z,10.32
2022-08-26T08:58:46.153Z,9.55
2022-08-26T09:01:26.309Z,9.50
2022-08-26T09:04:07.110Z,10.55
2022-08-26T09:06:35.864Z,9.77
2022-08-26T09:09:08.146Z,10.18
2022-08-26T09:11:38.853Z,10.23
2022-08-26T09:14:13.169Z,9.30
2022-08-26T09:16:51.749Z,9.40
2022-08-26T09:19:28.650Z,10.05
2022-08-26T09:21:58.087Z,10.00
2022-08-26T09:24:28.326Z,9.45
2022-08-26T09:26:59.377Z,10.07
2022-08-26T09:29:32.446Z,9.95
2022-08-26T09:32:19.505Z,10.45
2022-08-26T09:34:59.060Z,9.43
2022-08-26T09:37:40.929Z,10.15
2022-08-26T09:40:22.555Z,9.27
2022-08-26T09:43:09.008Z,10.05
2022-08-26T09:45:38.802Z,9.70
2022-08-26T09:48:12.969Z,10.23
2022-08-26T09:50:55.459Z,9.95
2022-08-26T09:53:28.657Z,9.82
2022-08-26T09:56:16.068Z,9.93
2022-08-26T09:58:48.435Z,10.93
2022-08-26T10:01:27.717Z,10.35
2022-08-26T10:04:07.710Z,10.85
2022-08-26T10:06:40.152Z,10.70
2022-08-26T10:09:14.520Z,9.18
2022-08-26T10:13:52.273Z,9.35
2022-08-26T10:16:24.392Z,10.57
2022-08-26T10:19:13.081Z,9.88
2022-08-26T10:21:52.270Z,9.80
2022-08-26T10:24:27.447Z,9.13
2022-08-26T10:27:03.801Z,10.43
2022-08-26T10:29:39.832Z,10.27
2022-08-26T10:32:13.819Z,9.88
2022-08-26T10:34:42.601Z,9.70
2022-08-26T10:37:16.593Z,10.25
2022-08-26T10:39:56.913Z,9.63
2022-08-26T10:42:32.722Z,10.00
2022-08-26T10:45:07.524Z,9.60
2022-08-26T10:47:46.089Z,10.10
2022-08-26T10:50:14.499Z,9.77
2022-08-26T10:52:56.497Z,9.60
2022-08-26T10:55:34.754Z,9.67
2022-08-26T10:58:14.489Z,10.57
2022-08-26T11:01:22.819Z,9.97
2022-08-26T11:03:58.219Z,9.50
2022-08-26T11:09:45.019Z,9.20
2022-08-26T11:12:49.215Z,9.73
2022-08-26T11:15:51.156Z,10.70
2022-08-26T11:18:58.411Z,9.93
2022-08-26T11:22:01.361Z,9.73
2022-08-26T11:25:20.785Z,10.00
2022-08-26T11:28:20.040Z,10.00
2022-08-26T11:30:59.023Z,9.70
2022-08-26T11:34:00.190Z,11.07
2022-08-26T11:37:01.177Z,10.80
2022-08-26T11:39:36.842Z,10.70
2022-08-26T11:42:31.167Z,9.63
2022-08-26T11:45:17.007Z,10.70
2022-08-26T11:47:46.624Z,10.60
2022-08-26T11:50:31.809Z,10.90
2022-08-26T11:53:10.313Z,11.53
2022-08-26T11:55:45.213Z,11.47
2022-08-26T11:58:16.852Z,11.10
2022-08-26T12:00:53.460Z,11.50
2022-08-26T12:03:25.134Z,11.57
2022-08-26T12:05:57.354Z,12.37
2022-08-26T12:08:28.821Z,12.30
2022-08-26T12:11:09.819Z,12.10
2022-08-26T12:13:40.190Z,11.57
2022-08-26T12:16:18.768Z,11.90
2022-08-26T12:18:47.453Z,12.50
2022-08-26T12:21:24.331Z,12.40
2022-08-26T12:23:55.951Z,12.83
2022-08-26T12:26:28.255Z,12.80
2022-08-26T12:28:59.487Z,11.87
2022-08-26T12:31:31.719Z,12.53
2022-08-26T12:34:02.221Z,13.43
2022-08-26T12:36:50.211Z,14.47
2022-08-26T12:39:27.782Z,12.73
2022-08-26T12:41:58.121Z,11.93
2022-08-26T12:44:53.736Z,12.23
2022-08-26T12:47:42.156Z,11.80
2022-08-26T12:50:18.918Z,11.82
2022-08-26T12:52:59.218Z,11.20
2022-08-26T12:55:38.489Z,11.75
2022-08-26T12:58:22.820Z,12.20
2022-08-26T13:00:52.679Z,12.80
2022-08-26T13:03:55.728Z,12.27
2022-08-26T13:06:30.235Z,12.32
2022-08-26T13:09:06.600Z,12.07
2022-08-26T13:11:56.133Z,12.98
2022-08-26T13:14:25.418Z,11.80
2022-08-26T13:16:54.256Z,11.18
2022-08-26T13:19:25.490Z,10.88
2022-08-26T13:21:55.629Z,12.00
2022-08-26T13:24:32.759Z,12.00
2022-08-26T13:27:01.273Z,11.73
2022-08-26T13:29:29.672Z,12.75
2022-08-26T13:31:59.841Z,11.80
2022-08-26T13:34:31.316Z,9.85
2022-08-26T13:37:00.488Z,11.40
2022-08-26T13:39:30.530Z,11.88
2022-08-26T13:41:58.904Z,11.45
2022-08-26T13:44:27.559Z,9.98
2022-08-26T13:46:55.894Z,10.13
2022-08-26T13:49:24.411Z,10.10
2022-08-26T13:51:52.809Z,11.80
2022-08-26T13:54:21.320Z,11.52
2022-08-26T13:56:51.726Z,11.48
2022-08-26T13:59:19.931Z,10.73
2022-08-26T14:01:48.536Z,11.32
2022-08-26T14:04:17.213Z,10.80
2022-08-26T14:06:56.051Z,11.60
2022-08-26T14:09:24.618Z,11.80
2022-08-26T14:11:55.223Z,10.73
2022-08-26T14:14:24.261Z,9.40
2022-08-26T14:16:59.477Z,10.43
2022-08-26T14:19:31.988Z,10.55
2022-08-26T14:22:01.865Z,12.77
2022-08-26T14:24:30.832Z,13.07
2022-08-26T14:27:00.848Z,12.80
2022-08-26T14:29:28.853Z,13.57
2022-08-26T14:32:01.701Z,13.02
2022-08-26T14:34:30.206Z,13.32
2022-08-26T14:36:59.887Z,13.20
2022-08-26T14:39:37.456Z,12.70
2022-08-26T14:42:09.105Z,13.50
2022-08-26T14:44:38.221Z,13.53
2022-08-26T14:47:07.352Z,14.17
2022-08-26T14:49:35.781Z,13.97
2022-08-26T14:52:04.557Z,13.00
2022-08-26T14:54:31.503Z,15.73
2022-08-26T14:57:03.606Z,15.33
2022-08-26T14:59:35.222Z,15.70
2022-08-26T15:02:04.573Z,16.70
2022-08-26T15:04:33.779Z,17.43
2022-08-26T15:07:03.300Z,20.30
2022-08-26T15:09:34.600Z,20.03
2022-08-26T15:12:03.324Z,20.97
2022-08-26T15:14:33.333Z,22.90
2022-08-26T15:17:01.622Z,21.97
2022-08-26T15:19:32.249Z,20.03
2022-08-26T15:22:00.679Z,20.13
2022-08-26T15:24:30.665Z,18.07
2022-08-26T15:26:59.072Z,17.70
2022-08-26T15:29:27.855Z,19.37
2022-08-26T15:31:57.874Z,18.40
2022-08-26T15:34:26.928Z,20.43
2022-08-26T15:36:56.249Z,19.17
2022-08-26T15:39:24.969Z,21.77
2022-08-26T15:41:53.387Z,21.97
2022-08-26T15:44:21.852Z,21.43
2022-08-26T15:46:54.318Z,22.57
2022-08-26T15:49:26.501Z,23.17
2022-08-26T15:51:55.030Z,22.73
2022-08-26T15:54:27.029Z,22.90
2022-08-26T15:56:55.332Z,22.27
2022-08-26T15:59:24.397Z,21.70
2022-08-26T16:01:53.402Z,22.47
2022-08-26T16:04:22.333Z,20.70
2022-08-26T16:06:57.575Z,21.90
2022-08-26T16:09:28.014Z,21.77
2022-08-26T16:11:57.282Z,21.50
2022-08-26T16:14:27.402Z,21.63
2022-08-26T16:16:59.126Z,20.53
2022-08-26T16:19:30.070Z,21.10
2022-08-26T16:22:07.868Z,19.70
2022-08-26T16:24:36.509Z,18.83
2022-08-26T16:27:05.119Z,16.87
2022-08-26T16:29:33.547Z,18.80
2022-08-26T16:32:08.635Z,17.87
2022-08-26T16:34:37.813Z,18.50
2022-08-26T16:37:18.606Z,18.43
2022-08-26T16:39:47.721Z,17.90
2022-08-26T16:42:16.066Z,18.13
2022-08-26T16:44:47.273Z,18.90
2022-08-26T16:47:19.116Z,17.70
2022-08-26T16:49:48.570Z,19.00
2022-08-26T16:52:20.507Z,20.47
2022-08-26T16:55:09.883Z,19.90
2022-08-26T16:58:12.362Z,22.07
2022-08-26T17:00:59.101Z,22.63
2022-08-26T17:03:48.999Z,25.40
2022-08-26T17:06:18.679Z,23.90
2022-08-26T17:30:22.841Z,30.97
2022-08-26T18:06:02.094Z,28.83
2022-08-26T18:12:03.025Z,29.70
2022-08-26T18:17:47.032Z,27.10
2022-08-26T18:26:26.047Z,30.53
2022-08-26T18:47:19.869Z,26.70
2022-08-26T18:49:50.309Z,27.47
2022-08-26T18:52:18.911Z,27.37
2022-08-26T19:00:35.658Z,29.27
2022-08-26T19:03:37.260Z,28.97
2022-08-26T19:06:07.429Z,26.47
2022-08-26T19:08:36.156Z,28.23
2022-08-26T19:11:07.488Z,30.17
2022-08-26T19:13:37.715Z,24.80
2022-08-26T19:16:06.617Z,23.30
2022-08-26T19:18:39.080Z,22.43
2022-08-26T19:21:10.467Z,22.13
2022-08-26T19:23:40.122Z,21.50
2022-08-26T19:26:09.336Z,21.67
2022-08-26T19:28:40.902Z,21.47
2022-08-26T19:31:10.574Z,20.50
2022-08-26T19:33:41.916Z,21.30
2022-08-26T19:36:17.557Z,20.03
2022-08-26T19:38:46.182Z,19.23
2022-08-26T19:41:15.260Z,20.23
2022-08-26T19:43:44.296Z,20.13
2022-08-26T19:46:17.384Z,21.73
2022-08-26T19:48:49.248Z,20.10
2022-08-26T19:51:26.101Z,19.97
2022-08-26T19:53:56.401Z,21.40
2022-08-26T19:56:25.496Z,20.80
2022-08-26T19:58:55.017Z,20.13
2022-08-26T20:01:24.646Z,19.37
2022-08-26T20:06:24.123Z,20.90
2022-08-26T20:08:53.990Z,20.80
2022-08-26T20:11:25.311Z,20.90
2022-08-26T20:13:54.130Z,19.60
2022-08-26T20:16:22.920Z,19.27
2022-08-26T20:19:09.031Z,21.00
2022-08-26T20:21:42.581Z,21.03
2022-08-26T20:24:13.299Z,20.70
2022-08-26T20:26:44.484Z,19.50
2022-08-26T20:29:15.481Z,20.30
2022-08-26T20:31:44.852Z,20.60
2022-08-26T20:34:13.816Z,19.03
2022-08-26T20:36:44.594Z,21.20
2022-08-26T20:39:13.700Z,20.70
2022-08-26T20:41:43.195Z,21.77
2022-08-26T20:44:12.220Z,20.40
2022-08-26T20:46:41.052Z,20.50
2022-08-26T20:49:13.191Z,18.83
2022-08-26T20:51:44.249Z,20.37
2022-08-26T20:54:14.548Z,20.40
2022-08-26T20:59:55.177Z,20.27
2022-08-26T21:05:28.229Z,20.43
2022-08-26T21:08:02.521Z,19.73
2022-08-26T21:10:33.769Z,19.33
2022-08-26T21:13:04.102Z,19.50
2022-08-26T21:15:56.539Z,19.80
2022-08-26T21:18:26.440Z,18.93
2022-08-26T21:20:55.667Z,20.37
2022-08-26T21:23:29.635Z,19.10
2022-08-26T21:26:28.927Z,19.13
2022-08-26T21:29:02.319Z,19.67
2022-08-26T21:31:36.936Z,19.37
2022-08-26T21:34:06.574Z,21.00
2022-08-26T21:36:38.929Z,19.80
2022-08-26T21:39:12.217Z,39.97
2022-08-26T21:41:45.652Z,23.87
2022-08-26T21:44:17.663Z,20.43
2022-08-26T21:46:49.424Z,21.23
2022-08-26T21:49:19.215Z,18.97
2022-08-26T21:51:54.515Z,20.43
2022-08-26T21:54:30.552Z,19.13
2022-08-26T21:56:59.732Z,17.63
2022-08-26T21:59:42.194Z,18.70
2022-08-26T22:02:10.910Z,17.93
2022-08-26T22:04:40.111Z,18.77
2022-08-26T22:07:09.268Z,17.03
2022-08-26T22:09:41.930Z,16.80
2022-08-26T22:12:13.878Z,17.27
2022-08-26T22:14:58.702Z,18.17
2022-08-26T22:17:28.242Z,17.00
2022-08-26T22:20:20.705Z,17.73
2022-08-26T22:22:52.540Z,18.73
2022-08-26T22:25:23.520Z,18.33
2022-08-26T22:27:52.921Z,16.30
2022-08-26T22:30:21.987Z,18.40
2022-08-26T22:32:54.004Z,18.10
2022-08-26T22:35:28.842Z,18.60
2022-08-26T22:37:58.436Z,17.93
2022-08-26T22:40:28.801Z,17.20
2022-08-26T22:43:00.766Z,16.60
2022-08-26T22:45:31.507Z,17.57
2022-08-26T22:48:01.987Z,16.33
2022-08-26T22:50:31.726Z,18.53
2022-08-26T22:53:00.502Z,17.10
2022-08-26T22:55:34.003Z,18.17
2022-08-26T22:58:06.142Z,16.30
2022-08-26T23:00:35.261Z,17.50
2022-08-26T23:03:10.886Z,16.03
2022-08-26T23:05:55.734Z,17.47
2022-08-26T23:08:27.925Z,17.57
2022-08-26T23:10:57.745Z,17.00
2022-08-26T23:13:32.158Z,16.70
2022-08-26T23:16:05.055Z,16.30
2022-08-26T23:18:38.207Z,15.63
2022-08-26T23:21:07.223Z,16.33
2022-08-26T23:23:41.838Z,16.10
2022-08-26T23:26:17.550Z,15.80
2022-08-26T23:28:50.821Z,15.80
2022-08-26T23:31:20.213Z,15.30
2022-08-26T23:34:08.138Z,13.97
2022-08-26T23:36:37.021Z,15.60
2022-08-26T23:39:09.213Z,15.20
2022-08-26T23:41:39.586Z,15.73
2022-08-26T23:44:08.242Z,36.07
2022-08-26T23:46:38.887Z,24.30
2022-08-26T23:49:21.412Z,15.80
2022-08-26T23:52:08.608Z,14.90
2022-08-26T23:54:37.314Z,13.90
2022-08-26T23:57:07.495Z,13.70
2022-08-26T23:59:35.759Z,14.30
